sensor_id;sensor_type;location;lat;lon;timestamp;pressure;altitude;pressure_sealevel;temperature;humidity
57412;BME280;43247;52.828;-8.980;2023-05-12T00:00:35;102542.67;;;12.79;83.03
57412;BME280;43247;52.828;-8.980;2023-05-12T00:01:36;102550.70;;;12.79;83.15
57412;BME280;43247;52.828;-8.980;2023-05-12T00:02:36;102545.98;;;12.76;82.47
57412;BME280;43247;52.828;-8.980;2023-05-12T00:03:36;102555.90;;;12.74;82.43
57412;BME280;43247;52.828;-8.980;2023-05-12T00:04:36;102550.08;;;12.73;82.51
57412;BME280;43247;52.828;-8.980;2023-05-12T00:05:36;102559.17;;;12.72;82.60
57412;BME280;43247;52.828;-8.980;2023-05-12T00:06:36;102560.52;;;12.71;82.13
57412;BME280;43247;52.828;-8.980;2023-05-12T00:07:37;102550.67;;;12.68;82.50
57412;BME280;43247;52.828;-8.980;2023-05-12T00:08:37;102554.10;;;12.67;82.35
57412;BME280;43247;52.828;-8.980;2023-05-12T00:09:37;102548.28;;;12.67;82.89
57412;BME280;43247;52.828;-8.980;2023-05-12T00:10:37;102549.47;;;12.67;82.89
57412;BME280;43247;52.828;-8.980;2023-05-12T00:11:37;102549.58;;;12.66;82.74
57412;BME280;43247;52.828;-8.980;2023-05-12T00:12:37;102557.45;;;12.68;82.50
57412;BME280;43247;52.828;-8.980;2023-05-12T00:13:38;102551.38;;;12.67;82.94
57412;BME280;43247;52.828;-8.980;2023-05-12T00:14:38;102550.31;;;12.66;82.70
57412;BME280;43247;52.828;-8.980;2023-05-12T00:15:39;102551.17;;;12.63;82.44
57412;BME280;43247;52.828;-8.980;2023-05-12T00:16:39;102559.06;;;12.63;82.59
57412;BME280;43247;52.828;-8.980;2023-05-12T00:17:39;102557.10;;;12.63;83.18
57412;BME280;43247;52.828;-8.980;2023-05-12T00:18:39;102556.74;;;12.63;82.67
57412;BME280;43247;52.828;-8.980;2023-05-12T00:19:39;102554.66;;;12.62;82.83
57412;BME280;43247;52.828;-8.980;2023-05-12T00:20:39;102560.96;;;12.63;83.01
57412;BME280;43247;52.828;-8.980;2023-05-12T00:21:40;102567.85;;;12.63;82.99
57412;BME280;43247;52.828;-8.980;2023-05-12T00:22:40;102561.47;;;12.61;82.65
57412;BME280;43247;52.828;-8.980;2023-05-12T00:23:40;102564.02;;;12.61;82.62
57412;BME280;43247;52.828;-8.980;2023-05-12T00:24:40;102560.78;;;12.60;82.86
57412;BME280;43247;52.828;-8.980;2023-05-12T00:25:40;102566.37;;;12.60;83.04
57412;BME280;43247;52.828;-8.980;2023-05-12T00:26:40;102562.53;;;12.59;82.51
57412;BME280;43247;52.828;-8.980;2023-05-12T00:27:41;102568.85;;;12.60;83.11
57412;BME280;43247;52.828;-8.980;2023-05-12T00:28:41;102568.22;;;12.58;82.82
57412;BME280;43247;52.828;-8.980;2023-05-12T00:29:41;102564.53;;;12.60;82.83
57412;BME280;43247;52.828;-8.980;2023-05-12T00:30:41;102566.13;;;12.61;83.24
57412;BME280;43247;52.828;-8.980;2023-05-12T00:31:41;102564.14;;;12.63;83.08
57412;BME280;43247;52.828;-8.980;2023-05-12T00:32:41;102566.61;;;12.61;82.79
57412;BME280;43247;52.828;-8.980;2023-05-12T00:33:42;102566.48;;;12.61;82.69
57412;BME280;43247;52.828;-8.980;2023-05-12T00:34:42;102566.40;;;12.61;82.80
57412;BME280;43247;52.828;-8.980;2023-05-12T00:35:42;102569.69;;;12.60;82.77
57412;BME280;43247;52.828;-8.980;2023-05-12T00:36:42;102568.83;;;12.60;82.74
57412;BME280;43247;52.828;-8.980;2023-05-12T00:37:43;102568.16;;;12.59;82.97
57412;BME280;43247;52.828;-8.980;2023-05-12T00:38:42;102575.07;;;12.61;83.15
57412;BME280;43247;52.828;-8.980;2023-05-12T00:39:43;102577.84;;;12.60;82.65
57412;BME280;43247;52.828;-8.980;2023-05-12T00:40:43;102577.80;;;12.56;82.78
57412;BME280;43247;52.828;-8.980;2023-05-12T00:41:43;102580.02;;;12.56;82.63
57412;BME280;43247;52.828;-8.980;2023-05-12T00:42:44;102586.82;;;12.56;82.84
57412;BME280;43247;52.828;-8.980;2023-05-12T00:43:44;102586.43;;;12.56;82.91
57412;BME280;43247;52.828;-8.980;2023-05-12T00:44:44;102586.18;;;12.58;82.94
57412;BME280;43247;52.828;-8.980;2023-05-12T00:45:44;102594.46;;;12.58;82.92
57412;BME280;43247;52.828;-8.980;2023-05-12T00:46:45;102595.92;;;12.57;82.75
57412;BME280;43247;52.828;-8.980;2023-05-12T00:47:45;102597.12;;;12.56;82.57
57412;BME280;43247;52.828;-8.980;2023-05-12T00:48:45;102597.77;;;12.58;82.93
57412;BME280;43247;52.828;-8.980;2023-05-12T00:49:45;102600.89;;;12.59;83.18
57412;BME280;43247;52.828;-8.980;2023-05-12T00:50:46;102604.92;;;12.59;83.21
57412;BME280;43247;52.828;-8.980;2023-05-12T00:51:46;102607.96;;;12.59;83.11
57412;BME280;43247;52.828;-8.980;2023-05-12T00:52:46;102609.51;;;12.58;82.78
57412;BME280;43247;52.828;-8.980;2023-05-12T00:53:48;102610.88;;;12.58;82.89
57412;BME280;43247;52.828;-8.980;2023-05-12T00:54:47;102614.99;;;12.58;82.97
57412;BME280;43247;52.828;-8.980;2023-05-12T00:55:47;102618.04;;;12.59;83.11
57412;BME280;43247;52.828;-8.980;2023-05-12T00:56:48;102611.22;;;12.58;82.79
57412;BME280;43247;52.828;-8.980;2023-05-12T00:57:48;102614.24;;;12.58;82.94
57412;BME280;43247;52.828;-8.980;2023-05-12T00:58:48;102617.97;;;12.58;82.94
57412;BME280;43247;52.828;-8.980;2023-05-12T00:59:48;102612.38;;;12.59;82.93
57412;BME280;43247;52.828;-8.980;2023-05-12T01:00:48;102622.86;;;12.58;82.86
57412;BME280;43247;52.828;-8.980;2023-05-12T01:01:48;102622.45;;;12.58;82.86
57412;BME280;43247;52.828;-8.980;2023-05-12T01:02:48;102623.90;;;12.58;82.99
57412;BME280;43247;52.828;-8.980;2023-05-12T01:03:49;102620.62;;;12.55;82.78
57412;BME280;43247;52.828;-8.980;2023-05-12T01:04:49;102616.62;;;12.55;83.01
57412;BME280;43247;52.828;-8.980;2023-05-12T01:05:53;102631.45;;;12.56;83.09
57412;BME280;43247;52.828;-8.980;2023-05-12T01:06:55;102627.54;;;12.54;82.49
57412;BME280;43247;52.828;-8.980;2023-05-12T01:07:50;102626.90;;;12.53;82.69
57412;BME280;43247;52.828;-8.980;2023-05-12T01:08:50;102626.38;;;12.50;82.53
57412;BME280;43247;52.828;-8.980;2023-05-12T01:09:53;102629.69;;;12.53;82.95
57412;BME280;43247;52.828;-8.980;2023-05-12T01:10:50;102629.06;;;12.53;83.17
57412;BME280;43247;52.828;-8.980;2023-05-12T01:11:50;102631.27;;;12.53;82.96
57412;BME280;43247;52.828;-8.980;2023-05-12T01:12:51;102632.51;;;12.55;82.93
57412;BME280;43247;52.828;-8.980;2023-05-12T01:13:51;102635.14;;;12.55;82.84
57412;BME280;43247;52.828;-8.980;2023-05-12T01:14:52;102633.15;;;12.55;82.72
57412;BME280;43247;52.828;-8.980;2023-05-12T01:15:51;102635.27;;;12.57;82.78
57412;BME280;43247;52.828;-8.980;2023-05-12T01:16:53;102636.15;;;12.57;82.64
57412;BME280;43247;52.828;-8.980;2023-05-12T01:17:54;102638.18;;;12.57;82.60
57412;BME280;43247;52.828;-8.980;2023-05-12T01:18:53;102638.91;;;12.57;82.61
57412;BME280;43247;52.828;-8.980;2023-05-12T01:19:54;102641.93;;;12.58;82.58
57412;BME280;43247;52.828;-8.980;2023-05-12T01:20:53;102642.17;;;12.58;82.54
57412;BME280;43247;52.828;-8.980;2023-05-12T01:21:52;102648.16;;;12.59;82.75
57412;BME280;43247;52.828;-8.980;2023-05-12T01:22:54;102655.44;;;12.59;82.55
57412;BME280;43247;52.828;-8.980;2023-05-12T01:23:57;102651.24;;;12.57;82.40
57412;BME280;43247;52.828;-8.980;2023-05-12T01:24:56;102647.71;;;12.56;82.36
57412;BME280;43247;52.828;-8.980;2023-05-12T01:25:54;102645.45;;;12.55;82.46
57412;BME280;43247;52.828;-8.980;2023-05-12T01:26:53;102646.73;;;12.54;82.45
57412;BME280;43247;52.828;-8.980;2023-05-12T01:27:53;102648.15;;;12.54;82.31
57412;BME280;43247;52.828;-8.980;2023-05-12T01:28:54;102645.44;;;12.54;82.61
57412;BME280;43247;52.828;-8.980;2023-05-12T01:29:56;102646.49;;;12.54;82.75
57412;BME280;43247;52.828;-8.980;2023-05-12T01:30:53;102644.80;;;12.53;82.43
57412;BME280;43247;52.828;-8.980;2023-05-12T01:31:54;102642.70;;;12.55;82.65
57412;BME280;43247;52.828;-8.980;2023-05-12T01:32:54;102643.36;;;12.57;82.60
57412;BME280;43247;52.828;-8.980;2023-05-12T01:33:54;102643.25;;;12.56;82.83
57412;BME280;43247;52.828;-8.980;2023-05-12T01:34:54;102643.62;;;12.56;82.84
57412;BME280;43247;52.828;-8.980;2023-05-12T01:35:54;102642.50;;;12.55;82.61
57412;BME280;43247;52.828;-8.980;2023-05-12T01:36:54;102644.72;;;12.54;82.76
57412;BME280;43247;52.828;-8.980;2023-05-12T01:37:55;102646.58;;;12.53;82.63
57412;BME280;43247;52.828;-8.980;2023-05-12T01:38:55;102646.16;;;12.54;82.68
57412;BME280;43247;52.828;-8.980;2023-05-12T01:39:55;102647.58;;;12.54;82.67
57412;BME280;43247;52.828;-8.980;2023-05-12T01:40:55;102648.21;;;12.52;82.42
57412;BME280;43247;52.828;-8.980;2023-05-12T01:41:55;102645.91;;;12.51;82.45
57412;BME280;43247;52.828;-8.980;2023-05-12T01:42:55;102649.60;;;12.48;82.41
57412;BME280;43247;52.828;-8.980;2023-05-12T01:43:56;102650.96;;;12.48;82.79
57412;BME280;43247;52.828;-8.980;2023-05-12T01:44:56;102652.79;;;12.49;82.65
57412;BME280;43247;52.828;-8.980;2023-05-12T01:45:56;102656.28;;;12.48;82.70
57412;BME280;43247;52.828;-8.980;2023-05-12T01:46:57;102651.83;;;12.47;82.57
57412;BME280;43247;52.828;-8.980;2023-05-12T01:47:57;102651.92;;;12.47;82.63
57412;BME280;43247;52.828;-8.980;2023-05-12T01:48:57;102650.75;;;12.46;82.63
57412;BME280;43247;52.828;-8.980;2023-05-12T01:49:57;102650.14;;;12.45;82.50
57412;BME280;43247;52.828;-8.980;2023-05-12T01:50:58;102652.83;;;12.46;82.28
57412;BME280;43247;52.828;-8.980;2023-05-12T01:51:58;102651.69;;;12.45;82.19
57412;BME280;43247;52.828;-8.980;2023-05-12T01:52:58;102651.12;;;12.48;82.38
57412;BME280;43247;52.828;-8.980;2023-05-12T01:53:59;102654.69;;;12.49;82.15
57412;BME280;43247;52.828;-8.980;2023-05-12T01:54:59;102654.85;;;12.49;82.00
57412;BME280;43247;52.828;-8.980;2023-05-12T01:55:59;102662.72;;;12.49;81.92
57412;BME280;43247;52.828;-8.980;2023-05-12T01:56:59;102656.69;;;12.52;82.21
57412;BME280;43247;52.828;-8.980;2023-05-12T01:57:59;102656.29;;;12.53;82.21
57412;BME280;43247;52.828;-8.980;2023-05-12T01:58:59;102655.26;;;12.53;82.32
57412;BME280;43247;52.828;-8.980;2023-05-12T01:59:59;102658.49;;;12.53;82.24
57412;BME280;43247;52.828;-8.980;2023-05-12T02:01:00;102658.97;;;12.53;82.36
57412;BME280;43247;52.828;-8.980;2023-05-12T02:02:00;102659.66;;;12.51;82.32
57412;BME280;43247;52.828;-8.980;2023-05-12T02:03:01;102663.20;;;12.52;82.20
57412;BME280;43247;52.828;-8.980;2023-05-12T02:04:01;102662.02;;;12.54;82.22
57412;BME280;43247;52.828;-8.980;2023-05-12T02:05:01;102661.62;;;12.53;82.14
57412;BME280;43247;52.828;-8.980;2023-05-12T02:06:02;102663.13;;;12.52;82.10
57412;BME280;43247;52.828;-8.980;2023-05-12T02:07:02;102662.98;;;12.54;82.37
57412;BME280;43247;52.828;-8.980;2023-05-12T02:08:02;102667.14;;;12.54;82.23
57412;BME280;43247;52.828;-8.980;2023-05-12T02:09:02;102665.13;;;12.53;82.14
57412;BME280;43247;52.828;-8.980;2023-05-12T02:10:04;102666.07;;;12.54;82.16
57412;BME280;43247;52.828;-8.980;2023-05-12T02:11:04;102666.20;;;12.53;82.28
57412;BME280;43247;52.828;-8.980;2023-05-12T02:12:04;102667.64;;;12.53;82.25
57412;BME280;43247;52.828;-8.980;2023-05-12T02:13:04;102665.61;;;12.53;82.22
57412;BME280;43247;52.828;-8.980;2023-05-12T02:14:04;102672.74;;;12.50;82.09
57412;BME280;43247;52.828;-8.980;2023-05-12T02:15:05;102669.94;;;12.51;82.27
57412;BME280;43247;52.828;-8.980;2023-05-12T02:16:05;102666.80;;;12.49;82.35
57412;BME280;43247;52.828;-8.980;2023-05-12T02:17:05;102668.67;;;12.50;82.36
57412;BME280;43247;52.828;-8.980;2023-05-12T02:18:05;102669.34;;;12.48;82.22
57412;BME280;43247;52.828;-8.980;2023-05-12T02:19:05;102670.65;;;12.47;82.17
57412;BME280;43247;52.828;-8.980;2023-05-12T02:20:06;102671.63;;;12.47;82.32
57412;BME280;43247;52.828;-8.980;2023-05-12T02:21:05;102676.79;;;12.47;82.39
57412;BME280;43247;52.828;-8.980;2023-05-12T02:22:05;102673.75;;;12.45;82.17
57412;BME280;43247;52.828;-8.980;2023-05-12T02:23:05;102673.73;;;12.44;82.13
57412;BME280;43247;52.828;-8.980;2023-05-12T02:24:06;102673.52;;;12.44;82.27
57412;BME280;43247;52.828;-8.980;2023-05-12T02:25:07;102669.89;;;12.43;82.21
57412;BME280;43247;52.828;-8.980;2023-05-12T02:26:06;102668.46;;;12.43;82.21
57412;BME280;43247;52.828;-8.980;2023-05-12T02:27:06;102673.26;;;12.41;82.16
57412;BME280;43247;52.828;-8.980;2023-05-12T02:28:06;102671.87;;;12.42;82.01
57412;BME280;43247;52.828;-8.980;2023-05-12T02:29:07;102674.33;;;12.41;82.16
57412;BME280;43247;52.828;-8.980;2023-05-12T02:30:07;102674.76;;;12.40;82.12
57412;BME280;43247;52.828;-8.980;2023-05-12T02:31:07;102675.51;;;12.38;82.08
57412;BME280;43247;52.828;-8.980;2023-05-12T02:32:07;102676.02;;;12.37;82.15
57412;BME280;43247;52.828;-8.980;2023-05-12T02:33:07;102683.15;;;12.36;82.11
57412;BME280;43247;52.828;-8.980;2023-05-12T02:34:07;102681.18;;;12.35;82.07
57412;BME280;43247;52.828;-8.980;2023-05-12T02:35:08;102683.54;;;12.35;82.31
57412;BME280;43247;52.828;-8.980;2023-05-12T02:36:08;102681.34;;;12.35;82.13
57412;BME280;43247;52.828;-8.980;2023-05-12T02:37:08;102683.35;;;12.33;82.11
57412;BME280;43247;52.828;-8.980;2023-05-12T02:38:08;102682.77;;;12.32;81.93
57412;BME280;43247;52.828;-8.980;2023-05-12T02:39:08;102683.25;;;12.30;81.92
57412;BME280;43247;52.828;-8.980;2023-05-12T02:40:09;102681.09;;;12.29;81.93
57412;BME280;43247;52.828;-8.980;2023-05-12T02:41:09;102680.78;;;12.29;82.18
57412;BME280;43247;52.828;-8.980;2023-05-12T02:42:09;102678.87;;;12.29;82.16
57412;BME280;43247;52.828;-8.980;2023-05-12T02:43:09;102678.83;;;12.28;81.94
57412;BME280;43247;52.828;-8.980;2023-05-12T02:44:09;102682.34;;;12.27;81.97
57412;BME280;43247;52.828;-8.980;2023-05-12T02:45:10;102683.92;;;12.28;81.96
57412;BME280;43247;52.828;-8.980;2023-05-12T02:46:10;102683.01;;;12.28;81.98
57412;BME280;43247;52.828;-8.980;2023-05-12T02:47:10;102685.77;;;12.27;82.16
57412;BME280;43247;52.828;-8.980;2023-05-12T02:48:10;102686.65;;;12.26;81.99
57412;BME280;43247;52.828;-8.980;2023-05-12T02:49:10;102688.80;;;12.25;81.97
57412;BME280;43247;52.828;-8.980;2023-05-12T02:50:10;102690.49;;;12.24;81.84
57412;BME280;43247;52.828;-8.980;2023-05-12T02:51:11;102693.59;;;12.23;81.77
57412;BME280;43247;52.828;-8.980;2023-05-12T02:52:11;102690.75;;;12.23;81.96
57412;BME280;43247;52.828;-8.980;2023-05-12T02:53:11;102693.01;;;12.21;81.82
57412;BME280;43247;52.828;-8.980;2023-05-12T02:54:11;102694.05;;;12.21;82.05
57412;BME280;43247;52.828;-8.980;2023-05-12T02:55:11;102695.03;;;12.19;82.05
57412;BME280;43247;52.828;-8.980;2023-05-12T02:56:11;102693.75;;;12.18;81.96
57412;BME280;43247;52.828;-8.980;2023-05-12T02:57:12;102695.87;;;12.18;81.94
57412;BME280;43247;52.828;-8.980;2023-05-12T02:58:12;102698.49;;;12.17;81.97
57412;BME280;43247;52.828;-8.980;2023-05-12T02:59:12;102696.77;;;12.17;81.95
57412;BME280;43247;52.828;-8.980;2023-05-12T03:00:13;102697.84;;;12.16;81.86
57412;BME280;43247;52.828;-8.980;2023-05-12T03:01:12;102701.04;;;12.14;81.89
57412;BME280;43247;52.828;-8.980;2023-05-12T03:02:13;102695.59;;;12.12;81.66
57412;BME280;43247;52.828;-8.980;2023-05-12T03:03:13;102696.64;;;12.10;81.51
57412;BME280;43247;52.828;-8.980;2023-05-12T03:04:13;102697.38;;;12.07;81.18
57412;BME280;43247;52.828;-8.980;2023-05-12T03:05:13;102694.97;;;12.03;80.88
57412;BME280;43247;52.828;-8.980;2023-05-12T03:06:14;102697.82;;;12.03;80.97
57412;BME280;43247;52.828;-8.980;2023-05-12T03:07:14;102695.67;;;12.01;80.73
57412;BME280;43247;52.828;-8.980;2023-05-12T03:08:14;102694.88;;;12.00;80.94
57412;BME280;43247;52.828;-8.980;2023-05-12T03:09:14;102695.76;;;12.00;80.81
57412;BME280;43247;52.828;-8.980;2023-05-12T03:10:15;102695.65;;;11.99;80.82
57412;BME280;43247;52.828;-8.980;2023-05-12T03:11:14;102700.26;;;12.00;80.69
57412;BME280;43247;52.828;-8.980;2023-05-12T03:12:14;102698.72;;;12.00;80.80
57412;BME280;43247;52.828;-8.980;2023-05-12T03:13:15;102698.86;;;12.00;80.79
57412;BME280;43247;52.828;-8.980;2023-05-12T03:14:15;102700.04;;;12.00;80.69
57412;BME280;43247;52.828;-8.980;2023-05-12T03:15:15;102700.66;;;11.98;80.52
57412;BME280;43247;52.828;-8.980;2023-05-12T03:16:15;102699.22;;;11.98;80.60
57412;BME280;43247;52.828;-8.980;2023-05-12T03:17:15;102700.41;;;11.98;80.61
57412;BME280;43247;52.828;-8.980;2023-05-12T03:18:15;102698.06;;;11.98;80.58
57412;BME280;43247;52.828;-8.980;2023-05-12T03:19:16;102700.00;;;11.96;80.69
57412;BME280;43247;52.828;-8.980;2023-05-12T03:20:16;102700.21;;;11.97;80.83
57412;BME280;43247;52.828;-8.980;2023-05-12T03:21:16;102697.54;;;11.96;81.01
57412;BME280;43247;52.828;-8.980;2023-05-12T03:22:16;102697.55;;;11.95;80.86
57412;BME280;43247;52.828;-8.980;2023-05-12T03:23:17;102702.17;;;11.95;80.90
57412;BME280;43247;52.828;-8.980;2023-05-12T03:24:16;102699.40;;;11.97;80.94
57412;BME280;43247;52.828;-8.980;2023-05-12T03:25:17;102696.90;;;11.96;81.03
57412;BME280;43247;52.828;-8.980;2023-05-12T03:26:17;102699.54;;;11.94;81.05
57412;BME280;43247;52.828;-8.980;2023-05-12T03:27:17;102700.46;;;11.94;80.80
57412;BME280;43247;52.828;-8.980;2023-05-12T03:28:17;102701.86;;;11.93;81.22
57412;BME280;43247;52.828;-8.980;2023-05-12T03:29:17;102702.09;;;11.92;81.22
57412;BME280;43247;52.828;-8.980;2023-05-12T03:30:17;102704.84;;;11.92;81.28
57412;BME280;43247;52.828;-8.980;2023-05-12T03:31:18;102705.22;;;11.92;81.34
57412;BME280;43247;52.828;-8.980;2023-05-12T03:32:18;102706.92;;;11.93;81.21
57412;BME280;43247;52.828;-8.980;2023-05-12T03:33:18;102707.64;;;11.92;81.19
57412;BME280;43247;52.828;-8.980;2023-05-12T03:34:19;102708.17;;;11.92;81.12
57412;BME280;43247;52.828;-8.980;2023-05-12T03:35:19;102708.00;;;11.91;81.04
57412;BME280;43247;52.828;-8.980;2023-05-12T03:36:19;102705.83;;;11.87;80.80
57412;BME280;43247;52.828;-8.980;2023-05-12T03:37:19;102705.91;;;11.81;80.52
57412;BME280;43247;52.828;-8.980;2023-05-12T03:38:19;102706.70;;;11.74;80.46
57412;BME280;43247;52.828;-8.980;2023-05-12T03:39:19;102706.38;;;11.74;80.18
57412;BME280;43247;52.828;-8.980;2023-05-12T03:40:20;102708.62;;;11.78;80.02
57412;BME280;43247;52.828;-8.980;2023-05-12T03:41:20;102707.12;;;11.75;79.96
57412;BME280;43247;52.828;-8.980;2023-05-12T03:42:20;102707.81;;;11.79;80.06
57412;BME280;43247;52.828;-8.980;2023-05-12T03:43:20;102705.17;;;11.74;80.10
57412;BME280;43247;52.828;-8.980;2023-05-12T03:44:21;102707.01;;;11.76;79.98
57412;BME280;43247;52.828;-8.980;2023-05-12T03:45:21;102707.55;;;11.75;80.23
57412;BME280;43247;52.828;-8.980;2023-05-12T03:46:22;102705.59;;;11.75;80.19
57412;BME280;43247;52.828;-8.980;2023-05-12T03:47:22;102705.58;;;11.77;80.04
57412;BME280;43247;52.828;-8.980;2023-05-12T03:48:22;102707.79;;;11.75;80.00
57412;BME280;43247;52.828;-8.980;2023-05-12T03:49:22;102709.64;;;11.76;80.00
57412;BME280;43247;52.828;-8.980;2023-05-12T03:50:22;102708.71;;;11.76;80.07
57412;BME280;43247;52.828;-8.980;2023-05-12T03:51:22;102707.56;;;11.78;79.98
57412;BME280;43247;52.828;-8.980;2023-05-12T03:52:22;102710.46;;;11.78;80.05
57412;BME280;43247;52.828;-8.980;2023-05-12T03:53:23;102710.30;;;11.76;80.08
57412;BME280;43247;52.828;-8.980;2023-05-12T03:54:23;102710.55;;;11.76;80.10
57412;BME280;43247;52.828;-8.980;2023-05-12T03:55:23;102711.67;;;11.78;80.38
57412;BME280;43247;52.828;-8.980;2023-05-12T03:56:23;102712.34;;;11.75;80.32
57412;BME280;43247;52.828;-8.980;2023-05-12T03:57:23;102712.82;;;11.74;80.46
57412;BME280;43247;52.828;-8.980;2023-05-12T03:58:23;102712.91;;;11.74;80.32
57412;BME280;43247;52.828;-8.980;2023-05-12T03:59:24;102712.49;;;11.74;80.65
57412;BME280;43247;52.828;-8.980;2023-05-12T04:00:24;102714.93;;;11.73;80.38
57412;BME280;43247;52.828;-8.980;2023-05-12T04:01:24;102714.73;;;11.72;80.49
57412;BME280;43247;52.828;-8.980;2023-05-12T04:02:24;102710.67;;;11.72;80.68
57412;BME280;43247;52.828;-8.980;2023-05-12T04:03:24;102711.27;;;11.72;80.68
57412;BME280;43247;52.828;-8.980;2023-05-12T04:04:24;102710.29;;;11.71;80.55
57412;BME280;43247;52.828;-8.980;2023-05-12T04:05:24;102710.63;;;11.72;80.60
57412;BME280;43247;52.828;-8.980;2023-05-12T04:06:25;102712.82;;;11.72;80.68
57412;BME280;43247;52.828;-8.980;2023-05-12T04:07:26;102710.66;;;11.72;80.74
57412;BME280;43247;52.828;-8.980;2023-05-12T04:08:25;102711.74;;;11.72;80.79
57412;BME280;43247;52.828;-8.980;2023-05-12T04:09:25;102712.04;;;11.71;80.92
57412;BME280;43247;52.828;-8.980;2023-05-12T04:10:25;102713.32;;;11.72;80.75
57412;BME280;43247;52.828;-8.980;2023-05-12T04:11:25;102713.28;;;11.71;80.80
57412;BME280;43247;52.828;-8.980;2023-05-12T04:12:26;102717.51;;;11.72;80.77
57412;BME280;43247;52.828;-8.980;2023-05-12T04:13:27;102718.59;;;11.71;80.81
57412;BME280;43247;52.828;-8.980;2023-05-12T04:14:26;102718.53;;;11.71;80.78
57412;BME280;43247;52.828;-8.980;2023-05-12T04:15:26;102722.45;;;11.71;80.59
57412;BME280;43247;52.828;-8.980;2023-05-12T04:16:26;102722.43;;;11.70;80.75
57412;BME280;43247;52.828;-8.980;2023-05-12T04:17:26;102721.67;;;11.69;80.74
57412;BME280;43247;52.828;-8.980;2023-05-12T04:18:27;102722.85;;;11.68;80.61
57412;BME280;43247;52.828;-8.980;2023-05-12T04:19:27;102725.43;;;11.68;80.62
57412;BME280;43247;52.828;-8.980;2023-05-12T04:20:27;102726.81;;;11.67;80.64
57412;BME280;43247;52.828;-8.980;2023-05-12T04:21:27;102726.15;;;11.66;80.64
57412;BME280;43247;52.828;-8.980;2023-05-12T04:22:27;102727.84;;;11.65;80.70
57412;BME280;43247;52.828;-8.980;2023-05-12T04:23:27;102729.30;;;11.65;80.74
57412;BME280;43247;52.828;-8.980;2023-05-12T04:24:27;102730.29;;;11.64;80.77
57412;BME280;43247;52.828;-8.980;2023-05-12T04:25:28;102731.16;;;11.62;80.88
57412;BME280;43247;52.828;-8.980;2023-05-12T04:26:28;102734.48;;;11.61;80.86
57412;BME280;43247;52.828;-8.980;2023-05-12T04:27:28;102733.23;;;11.61;80.79
57412;BME280;43247;52.828;-8.980;2023-05-12T04:28:28;102733.15;;;11.60;80.95
57412;BME280;43247;52.828;-8.980;2023-05-12T04:29:28;102733.73;;;11.59;80.94
57412;BME280;43247;52.828;-8.980;2023-05-12T04:30:28;102733.79;;;11.58;80.91
57412;BME280;43247;52.828;-8.980;2023-05-12T04:31:29;102733.03;;;11.58;80.93
57412;BME280;43247;52.828;-8.980;2023-05-12T04:32:29;102734.19;;;11.57;81.00
57412;BME280;43247;52.828;-8.980;2023-05-12T04:33:29;102735.95;;;11.57;81.12
57412;BME280;43247;52.828;-8.980;2023-05-12T04:34:29;102732.85;;;11.55;81.06
57412;BME280;43247;52.828;-8.980;2023-05-12T04:35:29;102734.26;;;11.55;81.10
57412;BME280;43247;52.828;-8.980;2023-05-12T04:36:29;102732.06;;;11.54;81.19
57412;BME280;43247;52.828;-8.980;2023-05-12T04:37:30;102734.38;;;11.53;81.17
57412;BME280;43247;52.828;-8.980;2023-05-12T04:38:30;102735.66;;;11.51;81.08
57412;BME280;43247;52.828;-8.980;2023-05-12T04:39:30;102735.92;;;11.50;81.12
57412;BME280;43247;52.828;-8.980;2023-05-12T04:40:30;102736.87;;;11.49;81.11
57412;BME280;43247;52.828;-8.980;2023-05-12T04:41:30;102736.67;;;11.49;81.21
57412;BME280;43247;52.828;-8.980;2023-05-12T04:42:30;102737.70;;;11.48;81.02
57412;BME280;43247;52.828;-8.980;2023-05-12T04:43:31;102740.37;;;11.47;81.07
57412;BME280;43247;52.828;-8.980;2023-05-12T04:44:31;102741.70;;;11.46;81.11
57412;BME280;43247;52.828;-8.980;2023-05-12T04:45:31;102740.62;;;11.45;81.11
57412;BME280;43247;52.828;-8.980;2023-05-12T04:46:31;102740.48;;;11.44;81.06
57412;BME280;43247;52.828;-8.980;2023-05-12T04:47:31;102739.40;;;11.43;81.17
57412;BME280;43247;52.828;-8.980;2023-05-12T04:48:31;102737.76;;;11.43;81.18
57412;BME280;43247;52.828;-8.980;2023-05-12T04:49:31;102737.83;;;11.43;81.16
57412;BME280;43247;52.828;-8.980;2023-05-12T04:50:32;102736.65;;;11.43;81.28
57412;BME280;43247;52.828;-8.980;2023-05-12T04:51:32;102736.40;;;11.42;81.11
57412;BME280;43247;52.828;-8.980;2023-05-12T04:52:32;102738.13;;;11.42;81.27
57412;BME280;43247;52.828;-8.980;2023-05-12T04:53:32;102738.56;;;11.41;81.13
57412;BME280;43247;52.828;-8.980;2023-05-12T04:54:32;102740.31;;;11.42;81.20
57412;BME280;43247;52.828;-8.980;2023-05-12T04:55:33;102742.95;;;11.40;81.18
57412;BME280;43247;52.828;-8.980;2023-05-12T04:56:33;102747.18;;;11.40;81.14
57412;BME280;43247;52.828;-8.980;2023-05-12T04:57:33;102747.37;;;11.39;81.12
57412;BME280;43247;52.828;-8.980;2023-05-12T04:58:33;102749.31;;;11.38;81.19
57412;BME280;43247;52.828;-8.980;2023-05-12T04:59:33;102750.45;;;11.38;81.24
57412;BME280;43247;52.828;-8.980;2023-05-12T05:00:33;102753.62;;;11.38;81.25
57412;BME280;43247;52.828;-8.980;2023-05-12T05:01:33;102756.80;;;11.38;81.27
57412;BME280;43247;52.828;-8.980;2023-05-12T05:02:34;102757.00;;;11.37;81.27
57412;BME280;43247;52.828;-8.980;2023-05-12T05:03:34;102757.03;;;11.36;81.13
57412;BME280;43247;52.828;-8.980;2023-05-12T05:04:34;102755.70;;;11.36;81.17
57412;BME280;43247;52.828;-8.980;2023-05-12T05:05:34;102756.01;;;11.35;81.35
57412;BME280;43247;52.828;-8.980;2023-05-12T05:06:34;102756.06;;;11.35;81.39
57412;BME280;43247;52.828;-8.980;2023-05-12T05:07:34;102757.10;;;11.35;81.41
57412;BME280;43247;52.828;-8.980;2023-05-12T05:08:35;102756.93;;;11.34;81.26
57412;BME280;43247;52.828;-8.980;2023-05-12T05:09:35;102756.26;;;11.34;81.31
57412;BME280;43247;52.828;-8.980;2023-05-12T05:10:35;102756.31;;;11.34;81.40